sensor_id;sensor_type;location;lat;lon;timestamp;temperature;humidity
10155;DHT22;5118;48.570;7.916;2023-09-07T00:02:16;17.10;99.90
10155;DHT22;5118;48.570;7.916;2023-09-07T00:04:57;17.10;99.90
10155;DHT22;5118;48.570;7.916;2023-09-07T00:07:26;17.10;99.90
10155;DHT22;5118;48.570;7.916;2023-09-07T00:09:56;17.00;99.90
10155;DHT22;5118;48.570;7.916;2023-09-07T00:12:24;16.90;99.90
10155;DHT22;5118;48.570;7.916;2023-09-07T00:14:52;16.90;99.90
10155;DHT22;5118;48.570;7.916;2023-09-07T00:17:22;16.80;99.90
10155;DHT22;5118;48.570;7.916;2023-09-07T00:19:50;16.70;99.90
10155;DHT22;5118;48.570;7.916;2023-09-07T00:22:19;16.60;99.90
10155;DHT22;5118;48.570;7.916;2023-09-07T00:24:48;16.60;99.90
10155;DHT22;5118;48.570;7.916;2023-09-07T00:27:18;16.50;99.90
10155;DHT22;5118;48.570;7.916;2023-09-07T00:29:46;16.40;99.90
10155;DHT22;5118;48.570;7.916;2023-09-07T00:32:14;16.30;99.90
10155;DHT22;5118;48.570;7.916;2023-09-07T00:34:43;16.20;99.90
10155;DHT22;5118;48.570;7.916;2023-09-07T00:37:11;16.20;99.90
10155;DHT22;5118;48.570;7.916;2023-09-07T00:39:40;16.10;99.90
10155;DHT22;5118;48.570;7.916;2023-09-07T00:42:08;16.10;99.90
10155;DHT22;5118;48.570;7.916;2023-09-07T00:44:38;16.10;99.90
10155;DHT22;5118;48.570;7.916;2023-09-07T00:47:09;16.10;99.90
10155;DHT22;5118;48.570;7.916;2023-09-07T00:49:38;16.10;99.90
10155;DHT22;5118;48.570;7.916;2023-09-07T00:52:08;16.00;99.90
10155;DHT22;5118;48.570;7.916;2023-09-07T00:54:37;16.00;99.90
10155;DHT22;5118;48.570;7.916;2023-09-07T00:57:08;15.90;99.90
10155;DHT22;5118;48.570;7.916;2023-09-07T00:59:38;16.00;99.90
10155;DHT22;5118;48.570;7.916;2023-09-07T01:02:07;15.90;99.90
10155;DHT22;5118;48.570;7.916;2023-09-07T01:04:35;15.90;99.90
10155;DHT22;5118;48.570;7.916;2023-09-07T01:07:09;15.80;99.90
10155;DHT22;5118;48.570;7.916;2023-09-07T01:09:42;15.80;99.90
10155;DHT22;5118;48.570;7.916;2023-09-07T01:12:14;15.70;99.90
10155;DHT22;5118;48.570;7.916;2023-09-07T01:14:44;15.70;99.90
10155;DHT22;5118;48.570;7.916;2023-09-07T01:17:13;15.60;99.90
10155;DHT22;5118;48.570;7.916;2023-09-07T01:19:42;15.60;99.90
10155;DHT22;5118;48.570;7.916;2023-09-07T01:22:14;15.60;99.90
10155;DHT22;5118;48.570;7.916;2023-09-07T01:24:43;15.60;99.90
10155;DHT22;5118;48.570;7.916;2023-09-07T01:27:12;15.60;99.90
10155;DHT22;5118;48.570;7.916;2023-09-07T01:29:41;15.50;99.90
10155;DHT22;5118;48.570;7.916;2023-09-07T01:32:09;15.50;99.90
10155;DHT22;5118;48.570;7.916;2023-09-07T01:34:38;15.50;99.90
10155;DHT22;5118;48.570;7.916;2023-09-07T01:37:08;15.40;99.90
10155;DHT22;5118;48.570;7.916;2023-09-07T01:39:38;15.40;99.90
10155;DHT22;5118;48.570;7.916;2023-09-07T01:42:07;15.40;99.90
10155;DHT22;5118;48.570;7.916;2023-09-07T01:44:35;15.30;99.90
10155;DHT22;5118;48.570;7.916;2023-09-07T01:47:05;15.30;99.90
10155;DHT22;5118;48.570;7.916;2023-09-07T01:49:34;15.20;99.90
10155;DHT22;5118;48.570;7.916;2023-09-07T01:52:02;15.20;99.90
10155;DHT22;5118;48.570;7.916;2023-09-07T01:54:31;15.20;99.90
10155;DHT22;5118;48.570;7.916;2023-09-07T01:57:01;15.20;99.90
10155;DHT22;5118;48.570;7.916;2023-09-07T01:59:29;15.10;99.90
10155;DHT22;5118;48.570;7.916;2023-09-07T02:01:57;15.10;99.90
10155;DHT22;5118;48.570;7.916;2023-09-07T02:04:26;15.10;99.90
10155;DHT22;5118;48.570;7.916;2023-09-07T02:06:54;15.00;99.90
10155;DHT22;5118;48.570;7.916;2023-09-07T02:09:22;15.00;99.90
10155;DHT22;5118;48.570;7.916;2023-09-07T02:11:51;15.00;99.90
10155;DHT22;5118;48.570;7.916;2023-09-07T02:14:20;15.00;99.90
10155;DHT22;5118;48.570;7.916;2023-09-07T02:16:58;14.90;99.90
10155;DHT22;5118;48.570;7.916;2023-09-07T02:19:27;14.90;99.90
10155;DHT22;5118;48.570;7.916;2023-09-07T02:21:55;14.80;99.90
10155;DHT22;5118;48.570;7.916;2023-09-07T02:24:24;14.80;99.90
10155;DHT22;5118;48.570;7.916;2023-09-07T02:26:53;14.70;99.90
10155;DHT22;5118;48.570;7.916;2023-09-07T02:29:23;14.80;99.90
10155;DHT22;5118;48.570;7.916;2023-09-07T02:31:52;14.70;99.90
10155;DHT22;5118;48.570;7.916;2023-09-07T02:34:22;14.70;99.90
10155;DHT22;5118;48.570;7.916;2023-09-07T02:36:51;14.60;99.90
10155;DHT22;5118;48.570;7.916;2023-09-07T02:39:22;14.60;99.90
10155;DHT22;5118;48.570;7.916;2023-09-07T02:41:53;14.60;99.90
10155;DHT22;5118;48.570;7.916;2023-09-07T02:44:25;14.50;99.90
10155;DHT22;5118;48.570;7.916;2023-09-07T02:46:54;14.50;99.90
10155;DHT22;5118;48.570;7.916;2023-09-07T02:49:23;14.50;99.90
10155;DHT22;5118;48.570;7.916;2023-09-07T02:51:52;14.50;99.90
10155;DHT22;5118;48.570;7.916;2023-09-07T02:54:21;14.40;99.90
10155;DHT22;5118;48.570;7.916;2023-09-07T02:56:49;14.40;99.90
10155;DHT22;5118;48.570;7.916;2023-09-07T02:59:19;14.30;99.90
10155;DHT22;5118;48.570;7.916;2023-09-07T03:01:49;14.30;99.90
10155;DHT22;5118;48.570;7.916;2023-09-07T03:04:18;14.20;99.90
10155;DHT22;5118;48.570;7.916;2023-09-07T03:06:46;14.10;99.90
10155;DHT22;5118;48.570;7.916;2023-09-07T03:09:16;14.10;99.90
10155;DHT22;5118;48.570;7.916;2023-09-07T03:11:45;14.00;99.90
10155;DHT22;5118;48.570;7.916;2023-09-07T03:14:13;14.00;99.90
10155;DHT22;5118;48.570;7.916;2023-09-07T03:16:42;13.90;99.90
10155;DHT22;5118;48.570;7.916;2023-09-07T03:19:12;13.90;99.90
10155;DHT22;5118;48.570;7.916;2023-09-07T03:21:41;13.80;99.90
10155;DHT22;5118;48.570;7.916;2023-09-07T03:24:10;13.80;99.90
10155;DHT22;5118;48.570;7.916;2023-09-07T03:26:38;13.80;99.90
10155;DHT22;5118;48.570;7.916;2023-09-07T03:29:07;13.70;99.90
10155;DHT22;5118;48.570;7.916;2023-09-07T03:31:35;13.70;99.90
10155;DHT22;5118;48.570;7.916;2023-09-07T03:34:04;13.60;99.90
10155;DHT22;5118;48.570;7.916;2023-09-07T03:36:35;13.60;99.90
10155;DHT22;5118;48.570;7.916;2023-09-07T03:39:03;13.60;99.90
10155;DHT22;5118;48.570;7.916;2023-09-07T03:41:35;13.50;99.90
10155;DHT22;5118;48.570;7.916;2023-09-07T03:44:03;13.50;99.90
10155;DHT22;5118;48.570;7.916;2023-09-07T03:46:32;13.50;99.90
10155;DHT22;5118;48.570;7.916;2023-09-07T03:49:01;13.50;99.90
10155;DHT22;5118;48.570;7.916;2023-09-07T03:51:29;13.50;99.90
10155;DHT22;5118;48.570;7.916;2023-09-07T03:53:59;13.50;99.90
10155;DHT22;5118;48.570;7.916;2023-09-07T03:56:28;13.50;99.90
10155;DHT22;5118;48.570;7.916;2023-09-07T03:58:56;13.40;99.90
10155;DHT22;5118;48.570;7.916;2023-09-07T04:01:25;13.40;99.90
10155;DHT22;5118;48.570;7.916;2023-09-07T04:03:53;13.40;99.90
10155;DHT22;5118;48.570;7.916;2023-09-07T04:06:22;13.40;99.90
10155;DHT22;5118;48.570;7.916;2023-09-07T04:08:51;13.40;99.90
10155;DHT22;5118;48.570;7.916;2023-09-07T04:11:22;13.40;99.90
10155;DHT22;5118;48.570;7.916;2023-09-07T04:13:50;13.50;99.90
10155;DHT22;5118;48.570;7.916;2023-09-07T04:16:19;13.40;99.90
10155;DHT22;5118;48.570;7.916;2023-09-07T04:18:47;13.40;99.90
10155;DHT22;5118;48.570;7.916;2023-09-07T04:21:16;13.40;99.90
10155;DHT22;5118;48.570;7.916;2023-09-07T04:23:44;13.40;99.90
10155;DHT22;5118;48.570;7.916;2023-09-07T04:26:14;13.40;99.90
10155;DHT22;5118;48.570;7.916;2023-09-07T04:28:44;13.40;99.90
10155;DHT22;5118;48.570;7.916;2023-09-07T04:31:12;13.40;99.90
10155;DHT22;5118;48.570;7.916;2023-09-07T04:33:41;13.30;99.90
10155;DHT22;5118;48.570;7.916;2023-09-07T04:36:10;13.30;99.90
10155;DHT22;5118;48.570;7.916;2023-09-07T04:38:41;13.30;99.90
10155;DHT22;5118;48.570;7.916;2023-09-07T04:41:11;13.20;99.90
10155;DHT22;5118;48.570;7.916;2023-09-07T04:43:41;13.20;99.90
10155;DHT22;5118;48.570;7.916;2023-09-07T04:46:13;13.20;99.90
10155;DHT22;5118;48.570;7.916;2023-09-07T04:48:42;13.10;99.90
10155;DHT22;5118;48.570;7.916;2023-09-07T04:51:10;13.10;99.90
10155;DHT22;5118;48.570;7.916;2023-09-07T04:53:40;13.10;99.90
10155;DHT22;5118;48.570;7.916;2023-09-07T04:56:08;13.10;99.90
10155;DHT22;5118;48.570;7.916;2023-09-07T04:58:38;13.10;99.90
10155;DHT22;5118;48.570;7.916;2023-09-07T05:01:08;13.20;99.90
10155;DHT22;5118;48.570;7.916;2023-09-07T05:03:39;13.10;99.90
10155;DHT22;5118;48.570;7.916;2023-09-07T05:06:09;13.10;99.90
10155;DHT22;5118;48.570;7.916;2023-09-07T05:08:38;13.10;99.90
10155;DHT22;5118;48.570;7.916;2023-09-07T05:11:06;13.10;99.90
10155;DHT22;5118;48.570;7.916;2023-09-07T05:13:35;13.10;99.90
10155;DHT22;5118;48.570;7.916;2023-09-07T05:16:03;13.20;99.90
10155;DHT22;5118;48.570;7.916;2023-09-07T05:18:34;13.20;99.90
10155;DHT22;5118;48.570;7.916;2023-09-07T05:21:13;13.20;99.90
10155;DHT22;5118;48.570;7.916;2023-09-07T05:23:42;13.20;99.90
10155;DHT22;5118;48.570;7.916;2023-09-07T05:26:10;13.20;99.90
10155;DHT22;5118;48.570;7.916;2023-09-07T05:28:40;13.30;99.90
10155;DHT22;5118;48.570;7.916;2023-09-07T05:31:09;13.40;99.90
10155;DHT22;5118;48.570;7.916;2023-09-07T05:33:38;13.40;99.90
10155;DHT22;5118;48.570;7.916;2023-09-07T05:36:07;13.50;99.90
10155;DHT22;5118;48.570;7.916;2023-09-07T05:38:37;13.50;99.90
10155;DHT22;5118;48.570;7.916;2023-09-07T05:41:07;13.60;99.90
10155;DHT22;5118;48.570;7.916;2023-09-07T05:43:35;13.70;99.90
10155;DHT22;5118;48.570;7.916;2023-09-07T05:46:05;13.70;99.90
10155;DHT22;5118;48.570;7.916;2023-09-07T05:48:34;13.80;99.90
10155;DHT22;5118;48.570;7.916;2023-09-07T05:51:02;13.80;99.90
10155;DHT22;5118;48.570;7.916;2023-09-07T05:53:31;13.90;99.90
10155;DHT22;5118;48.570;7.916;2023-09-07T05:56:01;14.00;99.90
10155;DHT22;5118;48.570;7.916;2023-09-07T05:58:30;14.00;99.90
10155;DHT22;5118;48.570;7.916;2023-09-07T06:00:59;14.10;99.90
10155;DHT22;5118;48.570;7.916;2023-09-07T06:03:28;14.20;99.90
10155;DHT22;5118;48.570;7.916;2023-09-07T06:05:57;14.30;99.90
10155;DHT22;5118;48.570;7.916;2023-09-07T06:08:26;14.40;99.90
10155;DHT22;5118;48.570;7.916;2023-09-07T06:10:54;14.50;99.90
10155;DHT22;5118;48.570;7.916;2023-09-07T06:13:24;14.60;99.90
10155;DHT22;5118;48.570;7.916;2023-09-07T06:15:53;14.70;99.90
10155;DHT22;5118;48.570;7.916;2023-09-07T06:18:22;14.90;99.90
10155;DHT22;5118;48.570;7.916;2023-09-07T06:20:51;15.00;99.90
10155;DHT22;5118;48.570;7.916;2023-09-07T06:23:19;15.10;99.90
10155;DHT22;5118;48.570;7.916;2023-09-07T06:25:48;15.20;99.90
10155;DHT22;5118;48.570;7.916;2023-09-07T06:28:17;15.30;99.90
10155;DHT22;5118;48.570;7.916;2023-09-07T06:30:47;15.40;99.90
10155;DHT22;5118;48.570;7.916;2023-09-07T06:33:17;15.50;99.90
10155;DHT22;5118;48.570;7.916;2023-09-07T06:35:45;15.60;99.90
10155;DHT22;5118;48.570;7.916;2023-09-07T06:38:14;15.70;99.90
10155;DHT22;5118;48.570;7.916;2023-09-07T06:40:47;15.80;99.90
10155;DHT22;5118;48.570;7.916;2023-09-07T06:43:17;15.80;99.90
10155;DHT22;5118;48.570;7.916;2023-09-07T06:45:48;15.90;99.90
10155;DHT22;5118;48.570;7.916;2023-09-07T06:48:17;16.00;99.90
10155;DHT22;5118;48.570;7.916;2023-09-07T06:50:45;16.10;99.90
10155;DHT22;5118;48.570;7.916;2023-09-07T06:53:14;16.20;99.90
10155;DHT22;5118;48.570;7.916;2023-09-07T06:55:43;16.30;99.90
10155;DHT22;5118;48.570;7.916;2023-09-07T06:58:11;16.40;99.90
10155;DHT22;5118;48.570;7.916;2023-09-07T07:00:39;16.50;99.90
10155;DHT22;5118;48.570;7.916;2023-09-07T07:03:09;16.50;99.90
10155;DHT22;5118;48.570;7.916;2023-09-07T07:05:38;16.60;99.90
10155;DHT22;5118;48.570;7.916;2023-09-07T07:08:06;16.70;99.90
10155;DHT22;5118;48.570;7.916;2023-09-07T07:10:36;16.70;99.90
10155;DHT22;5118;48.570;7.916;2023-09-07T07:13:05;16.80;99.90
10155;DHT22;5118;48.570;7.916;2023-09-07T07:15:35;16.90;99.90
10155;DHT22;5118;48.570;7.916;2023-09-07T07:18:23;16.90;99.90
10155;DHT22;5118;48.570;7.916;2023-09-07T07:20:51;17.00;99.90
10155;DHT22;5118;48.570;7.916;2023-09-07T07:23:19;17.10;99.90
10155;DHT22;5118;48.570;7.916;2023-09-07T07:25:48;17.20;99.90
10155;DHT22;5118;48.570;7.916;2023-09-07T07:28:17;17.20;99.90
10155;DHT22;5118;48.570;7.916;2023-09-07T07:30:45;17.30;99.90
10155;DHT22;5118;48.570;7.916;2023-09-07T07:33:15;17.50;99.90
10155;DHT22;5118;48.570;7.916;2023-09-07T07:35:46;17.60;99.90
10155;DHT22;5118;48.570;7.916;2023-09-07T07:38:14;17.60;99.90
10155;DHT22;5118;48.570;7.916;2023-09-07T07:40:43;17.80;99.90
10155;DHT22;5118;48.570;7.916;2023-09-07T07:43:14;17.90;99.90
10155;DHT22;5118;48.570;7.916;2023-09-07T07:45:43;17.90;99.90
10155;DHT22;5118;48.570;7.916;2023-09-07T07:48:12;18.10;99.90
10155;DHT22;5118;48.570;7.916;2023-09-07T07:50:43;18.10;99.90
10155;DHT22;5118;48.570;7.916;2023-09-07T07:53:14;18.20;99.90
10155;DHT22;5118;48.570;7.916;2023-09-07T07:55:45;18.30;99.90
10155;DHT22;5118;48.570;7.916;2023-09-07T07:58:18;18.40;99.90
10155;DHT22;5118;48.570;7.916;2023-09-07T08:00:47;18.50;99.90
10155;DHT22;5118;48.570;7.916;2023-09-07T08:03:20;18.60;99.90
10155;DHT22;5118;48.570;7.916;2023-09-07T08:05:49;18.70;99.90
10155;DHT22;5118;48.570;7.916;2023-09-07T08:08:19;18.80;99.90
10155;DHT22;5118;48.570;7.916;2023-09-07T08:10:48;18.90;99.90
10155;DHT22;5118;48.570;7.916;2023-09-07T08:13:16;18.90;99.90
10155;DHT22;5118;48.570;7.916;2023-09-07T08:15:47;19.00;99.90
10155;DHT22;5118;48.570;7.916;2023-09-07T08:18:16;19.10;99.90
10155;DHT22;5118;48.570;7.916;2023-09-07T08:20:45;19.20;99.90
10155;DHT22;5118;48.570;7.916;2023-09-07T08:23:14;19.30;99.90
10155;DHT22;5118;48.570;7.916;2023-09-07T08:25:44;19.40;99.90
10155;DHT22;5118;48.570;7.916;2023-09-07T08:28:15;19.50;99.90
10155;DHT22;5118;48.570;7.916;2023-09-07T08:30:45;19.60;99.90
10155;DHT22;5118;48.570;7.916;2023-09-07T08:33:14;19.70;99.90
10155;DHT22;5118;48.570;7.916;2023-09-07T08:35:42;19.80;99.90
10155;DHT22;5118;48.570;7.916;2023-09-07T08:38:12;19.90;99.90
10155;DHT22;5118;48.570;7.916;2023-09-07T08:40:40;20.00;99.90
10155;DHT22;5118;48.570;7.916;2023-09-07T08:43:11;20.10;99.90
10155;DHT22;5118;48.570;7.916;2023-09-07T08:45:44;20.20;99.90
10155;DHT22;5118;48.570;7.916;2023-09-07T08:48:15;20.30;99.90
10155;DHT22;5118;48.570;7.916;2023-09-07T08:50:46;20.30;99.90
10155;DHT22;5118;48.570;7.916;2023-09-07T08:53:18;20.40;99.90
10155;DHT22;5118;48.570;7.916;2023-09-07T08:55:48;20.50;99.90
10155;DHT22;5118;48.570;7.916;2023-09-07T08:58:18;20.60;99.90
10155;DHT22;5118;48.570;7.916;2023-09-07T09:00:47;20.70;99.90
10155;DHT22;5118;48.570;7.916;2023-09-07T09:03:16;20.80;99.90
10155;DHT22;5118;48.570;7.916;2023-09-07T09:05:47;20.90;99.90
10155;DHT22;5118;48.570;7.916;2023-09-07T09:08:18;21.00;99.90
10155;DHT22;5118;48.570;7.916;2023-09-07T09:10:59;21.10;99.90
10155;DHT22;5118;48.570;7.916;2023-09-07T09:13:32;21.20;99.90
10155;DHT22;5118;48.570;7.916;2023-09-07T09:16:04;21.30;99.90
10155;DHT22;5118;48.570;7.916;2023-09-07T09:18:32;21.40;99.90
10155;DHT22;5118;48.570;7.916;2023-09-07T09:21:01;21.50;99.90
10155;DHT22;5118;48.570;7.916;2023-09-07T09:23:31;21.60;99.90
10155;DHT22;5118;48.570;7.916;2023-09-07T09:26:00;21.70;99.90
10155;DHT22;5118;48.570;7.916;2023-09-07T09:28:32;21.70;99.90
10155;DHT22;5118;48.570;7.916;2023-09-07T09:31:02;21.80;99.90
10155;DHT22;5118;48.570;7.916;2023-09-07T09:33:31;21.90;99.90
10155;DHT22;5118;48.570;7.916;2023-09-07T09:36:00;22.00;99.90
10155;DHT22;5118;48.570;7.916;2023-09-07T09:38:29;22.10;99.90
10155;DHT22;5118;48.570;7.916;2023-09-07T09:41:00;22.20;99.90
10155;DHT22;5118;48.570;7.916;2023-09-07T09:43:31;22.30;99.90
10155;DHT22;5118;48.570;7.916;2023-09-07T09:46:00;22.40;99.90
10155;DHT22;5118;48.570;7.916;2023-09-07T09:48:36;22.40;99.90
10155;DHT22;5118;48.570;7.916;2023-09-07T09:51:04;22.50;99.90
10155;DHT22;5118;48.570;7.916;2023-09-07T09:53:33;22.60;99.90
10155;DHT22;5118;48.570;7.916;2023-09-07T09:56:03;22.70;99.90
10155;DHT22;5118;48.570;7.916;2023-09-07T09:58:33;22.80;99.90
10155;DHT22;5118;48.570;7.916;2023-09-07T10:01:02;22.90;99.90
10155;DHT22;5118;48.570;7.916;2023-09-07T10:03:34;23.00;99.90
10155;DHT22;5118;48.570;7.916;2023-09-07T10:06:09;23.10;99.90
10155;DHT22;5118;48.570;7.916;2023-09-07T10:08:38;23.20;99.90
10155;DHT22;5118;48.570;7.916;2023-09-07T10:11:09;23.30;99.90
10155;DHT22;5118;48.570;7.916;2023-09-07T10:13:39;23.30;99.90
10155;DHT22;5118;48.570;7.916;2023-09-07T10:16:07;23.40;99.90
10155;DHT22;5118;48.570;7.916;2023-09-07T10:18:37;23.50;99.90
10155;DHT22;5118;48.570;7.916;2023-09-07T10:21:06;23.60;99.90
10155;DHT22;5118;48.570;7.916;2023-09-07T10:23:36;23.80;99.90
10155;DHT22;5118;48.570;7.916;2023-09-07T10:26:09;23.90;99.90
10155;DHT22;5118;48.570;7.916;2023-09-07T10:28:40;24.00;99.90
10155;DHT22;5118;48.570;7.916;2023-09-07T10:31:14;24.10;99.90
10155;DHT22;5118;48.570;7.916;2023-09-07T10:33:42;24.20;99.90
10155;DHT22;5118;48.570;7.916;2023-09-07T10:36:21;24.30;99.90
10155;DHT22;5118;48.570;7.916;2023-09-07T10:38:50;24.40;99.90
10155;DHT22;5118;48.570;7.916;2023-09-07T10:41:20;24.50;99.90
10155;DHT22;5118;48.570;7.916;2023-09-07T10:43:51;24.60;99.90
10155;DHT22;5118;48.570;7.916;2023-09-07T10:46:21;24.70;99.90
10155;DHT22;5118;48.570;7.916;2023-09-07T10:48:51;24.90;99.90
10155;DHT22;5118;48.570;7.916;2023-09-07T10:51:20;25.20;99.90
10155;DHT22;5118;48.570;7.916;2023-09-07T10:53:48;25.90;99.90
10155;DHT22;5118;48.570;7.916;2023-09-07T10:56:17;26.60;99.90
10155;DHT22;5118;48.570;7.916;2023-09-07T10:58:46;27.40;99.90
10155;DHT22;5118;48.570;7.916;2023-09-07T11:01:20;28.40;99.90
10155;DHT22;5118;48.570;7.916;2023-09-07T11:03:48;29.30;99.90
10155;DHT22;5118;48.570;7.916;2023-09-07T11:06:19;30.20;99.90
10155;DHT22;5118;48.570;7.916;2023-09-07T11:08:53;31.00;99.90
10155;DHT22;5118;48.570;7.916;2023-09-07T11:11:21;31.90;99.90
10155;DHT22;5118;48.570;7.916;2023-09-07T11:13:50;32.30;95.20
10155;DHT22;5118;48.570;7.916;2023-09-07T11:16:20;32.80;93.40
10155;DHT22;5118;48.570;7.916;2023-09-07T11:18:52;33.40;88.80
10155;DHT22;5118;48.570;7.916;2023-09-07T11:21:22;34.00;78.70
10155;DHT22;5118;48.570;7.916;2023-09-07T11:23:51;34.50;71.40
10155;DHT22;5118;48.570;7.916;2023-09-07T11:26:20;35.00;60.40
10155;DHT22;5118;48.570;7.916;2023-09-07T11:28:50;35.30;51.40
10155;DHT22;5118;48.570;7.916;2023-09-07T11:31:20;35.50;48.40
10155;DHT22;5118;48.570;7.916;2023-09-07T11:33:49;35.90;46.60
10155;DHT22;5118;48.570;7.916;2023-09-07T11:36:17;36.30;42.40
10155;DHT22;5118;48.570;7.916;2023-09-07T11:38:51;36.80;36.30
10155;DHT22;5118;48.570;7.916;2023-09-07T11:41:19;37.00;30.00
10155;DHT22;5118;48.570;7.916;2023-09-07T11:43:48;37.20;26.50
10155;DHT22;5118;48.570;7.916;2023-09-07T11:46:16;37.20;24.20
10155;DHT22;5118;48.570;7.916;2023-09-07T11:48:46;37.20;22.90
10155;DHT22;5118;48.570;7.916;2023-09-07T11:51:15;37.30;23.20
10155;DHT22;5118;48.570;7.916;2023-09-07T11:53:44;37.70;22.00
10155;DHT22;5118;48.570;7.916;2023-09-07T11:56:12;37.90;19.30
10155;DHT22;5118;48.570;7.916;2023-09-07T11:58:41;38.20;17.60
10155;DHT22;5118;48.570;7.916;2023-09-07T12:01:11;38.20;15.60
10155;DHT22;5118;48.570;7.916;2023-09-07T12:03:41;38.30;14.80
10155;DHT22;5118;48.570;7.916;2023-09-07T12:06:12;38.60;15.30
10155;DHT22;5118;48.570;7.916;2023-09-07T12:08:42;38.80;13.50
10155;DHT22;5118;48.570;7.916;2023-09-07T12:11:11;39.00;12.30
10155;DHT22;5118;48.570;7.916;2023-09-07T12:13:40;39.00;11.00
10155;DHT22;5118;48.570;7.916;2023-09-07T12:16:09;39.10;10.50
10155;DHT22;5118;48.570;7.916;2023-09-07T12:18:37;39.10;9.10
10155;DHT22;5118;48.570;7.916;2023-09-07T12:21:06;39.30;8.80
10155;DHT22;5118;48.570;7.916;2023-09-07T12:23:36;39.50;9.00
10155;DHT22;5118;48.570;7.916;2023-09-07T12:26:05;39.80;9.10
10155;DHT22;5118;48.570;7.916;2023-09-07T12:28:34;40.30;7.90
10155;DHT22;5118;48.570;7.916;2023-09-07T12:31:03;40.70;7.20
10155;DHT22;5118;48.570;7.916;2023-09-07T12:33:32;41.20;6.00
10155;DHT22;5118;48.570;7.916;2023-09-07T12:36:01;41.50;5.10
10155;DHT22;5118;48.570;7.916;2023-09-07T12:38:30;41.70;3.00
10155;DHT22;5118;48.570;7.916;2023-09-07T12:41:00;41.50;1.30
10155;DHT22;5118;48.570;7.916;2023-09-07T12:43:29;41.40;2.60
10155;DHT22;5118;48.570;7.916;2023-09-07T12:45:58;41.60;2.10
10155;DHT22;5118;48.570;7.916;2023-09-07T12:48:27;41.60;1.00
10155;DHT22;5118;48.570;7.916;2023-09-07T12:50:56;41.50;1.00
10155;DHT22;5118;48.570;7.916;2023-09-07T12:53:24;41.40;1.00
10155;DHT22;5118;48.570;7.916;2023-09-07T12:55:53;41.20;1.00
10155;DHT22;5118;48.570;7.916;2023-09-07T12:58:23;41.20;1.00
10155;DHT22;5118;48.570;7.916;2023-09-07T13:00:54;41.30;1.00
10155;DHT22;5118;48.570;7.916;2023-09-07T13:03:22;41.40;1.00
10155;DHT22;5118;48.570;7.916;2023-09-07T13:05:51;41.70;1.00
10155;DHT22;5118;48.570;7.916;2023-09-07T13:08:20;42.00;1.00
10155;DHT22;5118;48.570;7.916;2023-09-07T13:10:48;42.40;1.00
10155;DHT22;5118;48.570;7.916;2023-09-07T13:13:17;43.00;1.00
10155;DHT22;5118;48.570;7.916;2023-09-07T13:15:47;43.20;1.00
10155;DHT22;5118;48.570;7.916;2023-09-07T13:18:16;43.50;1.00
10155;DHT22;5118;48.570;7.916;2023-09-07T13:20:45;43.70;1.00
10155;DHT22;5118;48.570;7.916;2023-09-07T13:23:16;44.20;1.00
10155;DHT22;5118;48.570;7.916;2023-09-07T13:25:45;44.70;1.00
10155;DHT22;5118;48.570;7.916;2023-09-07T13:28:13;45.00;1.00
10155;DHT22;5118;48.570;7.916;2023-09-07T13:30:42;45.10;1.00
10155;DHT22;5118;48.570;7.916;2023-09-07T13:33:12;45.50;1.00
10155;DHT22;5118;48.570;7.916;2023-09-07T13:35:42;45.80;1.00
10155;DHT22;5118;48.570;7.916;2023-09-07T13:38:12;45.90;1.00
10155;DHT22;5118;48.570;7.916;2023-09-07T13:40:41;46.10;1.00
10155;DHT22;5118;48.570;7.916;2023-09-07T13:43:10;46.30;1.00
10155;DHT22;5118;48.570;7.916;2023-09-07T13:45:39;46.50;1.00
10155;DHT22;5118;48.570;7.916;2023-09-07T13:48:07;46.70;1.00
10155;DHT22;5118;48.570;7.916;2023-09-07T13:50:37;46.90;1.00
10155;DHT22;5118;48.570;7.916;2023-09-07T13:53:06;47.20;1.00
10155;DHT22;5118;48.570;7.916;2023-09-07T13:55:35;47.50;1.00
10155;DHT22;5118;48.570;7.916;2023-09-07T13:58:07;47.50;1.00
10155;DHT22;5118;48.570;7.916;2023-09-07T14:00:35;47.40;1.00
10155;DHT22;5118;48.570;7.916;2023-09-07T14:03:05;47.10;1.00
10155;DHT22;5118;48.570;7.916;2023-09-07T14:05:33;47.10;1.00
10155;DHT22;5118;48.570;7.916;2023-09-07T14:08:04;47.10;1.00
10155;DHT22;5118;48.570;7.916;2023-09-07T14:10:32;47.30;1.00
10155;DHT22;5118;48.570;7.916;2023-09-07T14:13:01;47.60;1.00
10155;DHT22;5118;48.570;7.916;2023-09-07T14:15:31;47.80;1.00
10155;DHT22;5118;48.570;7.916;2023-09-07T14:18:00;47.90;1.00
10155;DHT22;5118;48.570;7.916;2023-09-07T14:20:30;48.20;1.00
10155;DHT22;5118;48.570;7.916;2023-09-07T14:22:58;48.40;1.00
10155;DHT22;5118;48.570;7.916;2023-09-07T14:25:31;48.60;1.00
10155;DHT22;5118;48.570;7.916;2023-09-07T14:27:59;48.80;1.00
10155;DHT22;5118;48.570;7.916;2023-09-07T14:30:28;48.90;1.00
10155;DHT22;5118;48.570;7.916;2023-09-07T14:32:56;48.90;1.00
10155;DHT22;5118;48.570;7.916;2023-09-07T14:35:25;48.90;1.00
10155;DHT22;5118;48.570;7.916;2023-09-07T14:37:54;49.00;1.00
10155;DHT22;5118;48.570;7.916;2023-09-07T14:40:22;49.00;1.00
10155;DHT22;5118;48.570;7.916;2023-09-07T14:42:53;48.90;1.00
10155;DHT22;5118;48.570;7.916;2023-09-07T14:45:24;48.80;1.00
10155;DHT22;5118;48.570;7.916;2023-09-07T14:47:52;48.40;1.00
10155;DHT22;5118;48.570;7.916;2023-09-07T14:50:21;48.30;1.00
10155;DHT22;5118;48.570;7.916;2023-09-07T14:52:49;48.40;1.00
10155;DHT22;5118;48.570;7.916;2023-09-07T14:55:18;48.40;1.00
10155;DHT22;5118;48.570;7.916;2023-09-07T14:57:47;48.60;1.00
10155;DHT22;5118;48.570;7.916;2023-09-07T15:00:17;48.70;1.00
10155;DHT22;5118;48.570;7.916;2023-09-07T15:02:46;48.90;1.00
10155;DHT22;5118;48.570;7.916;2023-09-07T15:05:14;48.90;1.00
10155;DHT22;5118;48.570;7.916;2023-09-07T15:07:43;48.90;1.00
10155;DHT22;5118;48.570;7.916;2023-09-07T15:10:11;48.70;1.00
10155;DHT22;5118;48.570;7.916;2023-09-07T15:12:40;48.50;1.00
10155;DHT22;5118;48.570;7.916;2023-09-07T15:15:08;48.40;1.00
10155;DHT22;5118;48.570;7.916;2023-09-07T15:17:39;48.30;1.00
10155;DHT22;5118;48.570;7.916;2023-09-07T15:20:08;48.40;1.00
10155;DHT22;5118;48.570;7.916;2023-09-07T15:22:38;48.50;1.00
10155;DHT22;5118;48.570;7.916;2023-09-07T15:25:07;48.60;1.00
10155;DHT22;5118;48.570;7.916;2023-09-07T15:27:36;48.60;1.00
10155;DHT22;5118;48.570;7.916;2023-09-07T15:30:06;48.60;1.00
10155;DHT22;5118;48.570;7.916;2023-09-07T15:32:35;48.60;1.00
10155;DHT22;5118;48.570;7.916;2023-09-07T15:35:05;48.40;1.00
10155;DHT22;5118;48.570;7.916;2023-09-07T15:37:34;48.40;1.00
10155;DHT22;5118;48.570;7.916;2023-09-07T15:40:03;48.20;1.00
10155;DHT22;5118;48.570;7.916;2023-09-07T15:42:31;47.80;1.00
10155;DHT22;5118;48.570;7.916;2023-09-07T15:44:59;47.60;1.00
10155;DHT22;5118;48.570;7.916;2023-09-07T15:47:28;47.10;1.00
10155;DHT22;5118;48.570;7.916;2023-09-07T15:49:57;46.80;1.00
10155;DHT22;5118;48.570;7.916;2023-09-07T15:52:27;46.50;1.00
10155;DHT22;5118;48.570;7.916;2023-09-07T15:54:55;46.30;1.00
10155;DHT22;5118;48.570;7.916;2023-09-07T15:57:24;46.40;1.00
10155;DHT22;5118;48.570;7.916;2023-09-07T15:59:53;46.50;1.00
10155;DHT22;5118;48.570;7.916;2023-09-07T16:02:23;46.50;1.00
10155;DHT22;5118;48.570;7.916;2023-09-07T16:04:51;46.30;1.00